Time;durP1;ratioP1;P1;durP2;ratioP2;P2;SDS_P1;SDS_P2;PMS_P1;PMS_P2;Temp;Humidity;BMP_temperature;BMP_pressure;BME280_temperature;BME280_humidity;BME280_pressure;Samples;Min_cycle;Max_cycle;Signal;HPM_P1;HPM_P2
2022/01/29 00:01:56;;;;;;;3.63;2.17;;;1.80;99.90;;;;;;5068975;28;20499;-71
2022/01/29 00:04:22;;;;;;;4.40;1.90;;;1.80;99.90;;;;;;5068255;28;20021;-71
2022/01/29 00:06:47;;;;;;;4.87;2.03;;;1.70;99.90;;;;;;5070219;28;20024;-71
2022/01/29 00:09:15;;;;;;;3.03;1.73;;;1.70;99.90;;;;;;5069816;28;20037;-71
2022/01/29 00:11:44;;;;;;;2.88;1.63;;;1.70;99.90;;;;;;5070193;28;20459;-72
2022/01/29 00:14:11;;;;;;;3.20;1.73;;;1.70;99.90;;;;;;5073201;28;20142;-70
2022/01/29 00:16:37;;;;;;;2.97;1.98;;;1.70;99.90;;;;;;5074056;28;20467;-70
2022/01/29 00:19:04;;;;;;;3.35;1.90;;;1.70;99.90;;;;;;5073448;28;20032;-71
2022/01/29 00:21:30;;;;;;;6.22;1.80;;;1.70;99.90;;;;;;5072283;28;20021;-71
2022/01/29 00:23:55;;;;;;;3.17;1.70;;;1.70;99.90;;;;;;5073282;28;20468;-71
2022/01/29 00:26:23;;;;;;;2.53;1.40;;;1.70;99.90;;;;;;5072087;28;20060;-71
2022/01/29 00:28:51;;;;;;;3.75;1.58;;;1.70;99.90;;;;;;5073467;28;20028;-71
2022/01/29 00:31:17;;;;;;;2.15;1.20;;;1.60;99.90;;;;;;5073186;28;20013;-71
2022/01/29 00:33:43;;;;;;;3.05;1.70;;;1.70;99.90;;;;;;5072994;28;20037;-71
2022/01/29 00:36:09;;;;;;;3.10;1.60;;;1.70;99.90;;;;;;5073094;28;20115;-72
2022/01/29 00:38:35;;;;;;;2.20;1.50;;;1.70;99.90;;;;;;5073299;28;20090;-71
2022/01/29 00:41:01;;;;;;;1.98;1.35;;;1.70;99.90;;;;;;5071707;28;20016;-72
2022/01/29 00:43:27;;;;;;;;;;;1.70;99.90;;;;;;5073782;28;20067;-72
2022/01/29 00:45:53;;;;;;;2.67;1.50;;;1.70;99.90;;;;;;5072489;28;19981;-71
2022/01/29 00:48:19;;;;;;;3.23;1.47;;;1.70;99.90;;;;;;5073283;28;20047;-71
2022/01/29 00:50:45;;;;;;;2.70;1.30;;;1.60;99.90;;;;;;5072734;28;20392;-72
2022/01/29 00:53:10;;;;;;;3.70;1.53;;;1.60;99.90;;;;;;5073576;28;20032;-72
2022/01/29 00:55:36;;;;;;;2.07;1.30;;;1.60;99.90;;;;;;5072579;28;20036;-74
2022/01/29 00:58:02;;;;;;;3.97;1.70;;;1.60;99.90;;;;;;5073627;28;20029;-70
2022/01/29 01:00:28;;;;;;;2.58;1.38;;;1.60;99.90;;;;;;5073077;28;20412;-71
2022/01/29 01:02:54;;;;;;;2.30;1.50;;;1.60;99.90;;;;;;5073323;28;20133;-70
2022/01/29 01:05:19;;;;;;;1.73;1.20;;;1.60;99.90;;;;;;5071034;28;20036;-71
2022/01/29 01:07:45;;;;;;;3.17;1.53;;;1.50;99.90;;;;;;5071678;28;20037;-71
2022/01/29 01:10:12;;;;;;;3.00;1.80;;;1.50;99.90;;;;;;5072356;28;20035;-72
2022/01/29 01:12:37;;;;;;;;;;;1.50;99.90;;;;;;5072361;28;20502;-70
2022/01/29 01:15:07;;;;;;;2.50;1.42;;;1.50;99.90;;;;;;5072703;28;20011;-71
2022/01/29 01:17:33;;;;;;;3.15;1.60;;;1.60;99.90;;;;;;5071366;28;20599;-70
2022/01/29 01:19:58;;;;;;;3.05;1.30;;;1.60;99.90;;;;;;5072441;28;20039;-70
2022/01/29 01:22:24;;;;;;;3.30;1.60;;;1.50;99.90;;;;;;5072883;28;20349;-71
2022/01/29 01:24:50;;;;;;;5.73;1.50;;;1.50;99.90;;;;;;5069936;28;20024;-71
2022/01/29 01:27:16;;;;;;;3.70;1.60;;;1.50;99.90;;;;;;5072923;28;20028;-72
2022/01/29 01:29:43;;;;;;;1.85;1.13;;;1.50;99.90;;;;;;5071758;28;20021;-71
2022/01/29 01:32:11;;;;;;;2.20;1.33;;;1.50;99.90;;;;;;5070983;28;20069;-70
2022/01/29 01:34:41;;;;;;;2.17;1.27;;;1.50;99.90;;;;;;5070390;28;20089;-71
2022/01/29 01:37:11;;;;;;;2.58;1.02;;;1.50;99.90;;;;;;5068256;28;20032;-70
2022/01/29 01:39:39;;;;;;;2.17;1.10;;;1.60;99.90;;;;;;5066484;28;20024;-69
2022/01/29 01:42:06;;;;;;;2.63;1.13;;;1.50;99.90;;;;;;5072341;28;20028;-70
2022/01/29 01:44:43;;;;;;;2.70;1.60;;;1.50;99.90;;;;;;5070182;28;20025;-70
2022/01/29 01:47:09;;;;;;;2.47;1.40;;;1.60;99.90;;;;;;5070605;28;20430;-70
2022/01/29 01:49:35;;;;;;;;;;;1.50;99.90;;;;;;5072148;28;20048;-73
2022/01/29 01:52:01;;;;;;;4.10;1.55;;;1.50;99.90;;;;;;5072182;28;20407;-70
2022/01/29 01:54:27;;;;;;;1.90;1.17;;;1.50;99.90;;;;;;5071651;28;20139;-71
2022/01/29 01:56:53;;;;;;;2.47;1.30;;;1.50;99.90;;;;;;5070910;28;20151;-71
2022/01/29 01:59:19;;;;;;;3.23;1.53;;;1.50;99.90;;;;;;5072020;28;20253;-71
2022/01/29 02:01:45;;;;;;;1.77;1.15;;;1.40;99.90;;;;;;5072068;28;20025;-70
2022/01/29 02:04:11;;;;;;;2.90;1.30;;;1.40;99.90;;;;;;5069618;28;20035;-71
2022/01/29 02:06:37;;;;;;;1.65;1.17;;;1.40;99.90;;;;;;5072202;28;20024;-71
2022/01/29 02:09:03;;;;;;;2.72;1.30;;;1.30;99.90;;;;;;5071378;28;20043;-70
2022/01/29 02:11:30;;;;;;;3.03;1.10;;;1.40;99.90;;;;;;5071876;28;20790;-70
2022/01/29 02:13:57;;;;;;;2.08;1.27;;;1.40;99.90;;;;;;5071382;28;20487;-70
2022/01/29 02:16:26;;;;;;;2.53;1.17;;;1.40;99.90;;;;;;5051295;28;20043;-70
2022/01/29 02:18:52;;;;;;;1.88;1.02;;;1.40;99.90;;;;;;5051453;28;20025;-70
2022/01/29 02:21:19;;;;;;;1.67;1.13;;;1.40;99.90;;;;;;5070685;28;20090;-71
2022/01/29 02:23:45;;;;;;;2.03;1.02;;;1.40;99.90;;;;;;5071098;28;20510;-70
2022/01/29 02:26:11;;;;;;;3.67;1.33;;;1.40;99.90;;;;;;5070779;28;20079;-70
2022/01/29 02:28:37;;;;;;;3.63;1.17;;;1.40;99.90;;;;;;5069730;28;20036;-71
2022/01/29 02:31:04;;;;;;;1.80;1.07;;;1.40;99.90;;;;;;5071448;28;20027;-70
2022/01/29 02:33:32;;;;;;;2.08;1.25;;;1.40;99.90;;;;;;5069390;28;20115;-70
2022/01/29 02:35:58;;;;;;;1.92;1.17;;;1.40;99.90;;;;;;5067688;28;20350;-70
2022/01/29 02:38:26;;;;;;;3.25;1.40;;;1.40;99.90;;;;;;5069221;28;20029;-71
2022/01/29 02:41:01;;;;;;;2.05;1.27;;;1.40;99.90;;;;;;5068730;28;20039;-73
2022/01/29 02:43:33;;;;;;;2.58;1.42;;;1.40;99.90;;;;;;5067874;28;20541;-72
2022/01/29 02:46:19;;;;;;;2.75;1.40;;;1.30;99.90;;;;;;5068737;28;20041;-71
2022/01/29 02:48:47;;;;;;;2.15;1.30;;;1.40;99.90;;;;;;5069224;28;20052;-71
2022/01/29 02:51:12;;;;;;;1.85;1.00;;;1.30;99.90;;;;;;5070787;28;20029;-73
2022/01/29 02:53:38;;;;;;;2.37;1.40;;;1.30;99.90;;;;;;5070723;28;20078;-71
2022/01/29 02:56:05;;;;;;;2.47;1.25;;;1.30;99.90;;;;;;5070231;28;20503;-70
2022/01/29 02:58:31;;;;;;;2.58;1.25;;;1.30;99.90;;;;;;5069320;28;20032;-72
2022/01/29 03:00:57;;;;;;;2.30;1.30;;;1.30;99.90;;;;;;5070608;28;20025;-68
2022/01/29 03:03:24;;;;;;;3.83;1.60;;;1.30;99.90;;;;;;5069329;28;20039;-71
2022/01/29 03:05:50;;;;;;;3.25;1.60;;;1.30;99.90;;;;;;5070170;28;20021;-71
2022/01/29 03:08:16;;;;;;;3.90;1.55;;;1.30;99.90;;;;;;5070551;28;20024;-69
2022/01/29 03:10:42;;;;;;;3.63;1.90;;;1.30;99.90;;;;;;5070503;28;20396;-70
2022/01/29 03:13:09;;;;;;;5.40;1.70;;;1.30;99.90;;;;;;5070441;28;20029;-70
2022/01/29 03:15:34;;;;;;;2.42;1.40;;;1.30;99.90;;;;;;5070035;28;20280;-70
2022/01/29 03:18:00;;;;;;;3.20;1.40;;;1.30;99.90;;;;;;5070907;28;20480;-70
2022/01/29 03:20:26;;;;;;;4.37;2.00;;;1.30;99.90;;;;;;5068617;28;20369;-72
2022/01/29 03:22:52;;;;;;;2.90;1.30;;;1.30;99.90;;;;;;5071053;28;20409;-71
2022/01/29 03:25:18;;;;;;;2.97;1.53;;;1.30;99.90;;;;;;5069978;28;20177;-72
2022/01/29 03:27:43;;;;;;;3.03;1.70;;;1.30;99.90;;;;;;5070615;28;20361;-71
2022/01/29 03:30:10;;;;;;;3.50;1.80;;;1.30;99.90;;;;;;5070053;28;20051;-72
2022/01/29 03:32:35;;;;;;;2.50;1.63;;;1.30;99.90;;;;;;5069601;28;20506;-70
2022/01/29 03:35:02;;;;;;;2.97;1.57;;;1.30;99.90;;;;;;5070047;28;20056;-72
2022/01/29 03:37:28;;;;;;;;;;;1.20;99.90;;;;;;5069559;28;20107;-69
2022/01/29 03:39:58;;;;;;;4.45;1.55;;;1.30;99.90;;;;;;5069872;28;20387;-71
2022/01/29 03:42:25;;;;;;;2.67;1.55;;;1.30;99.90;;;;;;5070707;28;20131;-72
2022/01/29 03:44:51;;;;;;;3.25;1.67;;;1.30;99.90;;;;;;5069908;28;20017;-70
2022/01/29 03:47:16;;;;;;;2.90;1.63;;;1.30;99.90;;;;;;5069822;28;20039;-71
2022/01/29 03:49:42;;;;;;;3.03;1.70;;;1.30;99.90;;;;;;5073688;28;20095;-70
2022/01/29 03:52:08;;;;;;;3.47;1.50;;;1.30;99.90;;;;;;5074228;28;20036;-71
2022/01/29 03:54:34;;;;;;;3.20;1.60;;;1.30;99.90;;;;;;5073660;28;20025;-70
2022/01/29 03:56:59;;;;;;;2.67;1.50;;;1.30;99.90;;;;;;5074263;28;20082;-70
2022/01/29 03:59:25;;;;;;;3.63;1.73;;;1.30;99.90;;;;;;5073806;28;20031;-71
2022/01/29 04:01:51;;;;;;;4.53;1.63;;;1.30;99.90;;;;;;5057298;28;20116;-71
2022/01/29 04:04:16;;;;;;;5.20;1.83;;;1.30;99.90;;;;;;5056334;28;20095;-72
2022/01/29 04:06:42;;;;;;;3.17;1.63;;;1.40;99.90;;;;;;5074068;28;20041;-70
2022/01/29 04:09:11;;;;;;;3.27;1.60;;;1.40;99.90;;;;;;5073404;28;20040;-71
2022/01/29 04:11:38;;;;;;;3.05;1.50;;;1.30;99.90;;;;;;5073981;28;20060;-73
2022/01/29 04:14:31;;;;;;;3.30;1.70;;;1.30;99.90;;;;;;5073323;28;20055;-69
2022/01/29 04:16:55;;;;;;;3.15;1.80;;;1.30;99.90;;;;;;5073255;28;20044;-70
2022/01/29 04:19:21;;;;;;;4.27;1.67;;;1.30;99.90;;;;;;5073357;28;20380;-70
2022/01/29 04:21:47;;;;;;;2.47;1.43;;;1.30;99.90;;;;;;5073584;28;20456;-70
2022/01/29 04:24:12;;;;;;;3.20;1.73;;;1.20;99.90;;;;;;5073078;28;20100;-69
2022/01/29 04:26:38;;;;;;;2.83;1.50;;;1.20;99.90;;;;;;5072348;28;20137;-70
2022/01/29 04:29:07;;;;;;;3.23;1.70;;;1.20;99.90;;;;;;5071759;28;20029;-71
2022/01/29 04:31:55;;;;;;;3.50;1.90;;;1.30;99.90;;;;;;5073624;28;20028;-70
2022/01/29 04:34:21;;;;;;;3.08;1.52;;;1.30;99.90;;;;;;5072834;28;20032;-70
2022/01/29 04:36:47;;;;;;;3.15;1.58;;;1.30;99.90;;;;;;5071683;28;20036;-71
2022/01/29 04:39:13;;;;;;;3.07;1.60;;;1.30;99.90;;;;;;5071708;28;20441;-70
2022/01/29 04:41:39;;;;;;;3.08;1.67;;;1.30;99.90;;;;;;5073314;28;20492;-70
2022/01/29 04:44:05;;;;;;;3.88;1.40;;;1.30;99.90;;;;;;5073151;28;20033;-71
2022/01/29 04:46:31;;;;;;;3.58;1.50;;;1.30;99.90;;;;;;5071789;28;20025;-70
2022/01/29 04:48:57;;;;;;;3.67;1.70;;;1.30;99.90;;;;;;5072724;28;20048;-70
2022/01/29 04:51:24;;;;;;;3.57;1.73;;;1.30;99.90;;;;;;5071663;28;20031;-71
2022/01/29 04:53:50;;;;;;;3.10;1.63;;;1.30;99.90;;;;;;5073207;28;20457;-73
2022/01/29 04:56:15;;;;;;;3.60;1.80;;;1.30;99.90;;;;;;5072314;28;20040;-70
2022/01/29 04:58:41;;;;;;;2.40;1.33;;;1.30;99.90;;;;;;5070801;28;20032;-70
2022/01/29 05:01:07;;;;;;;2.93;1.47;;;1.30;99.90;;;;;;5072429;28;20021;-71
2022/01/29 05:03:33;;;;;;;2.40;1.43;;;1.30;99.90;;;;;;5072832;28;20051;-70
2022/01/29 05:06:00;;;;;;;2.65;1.52;;;1.40;99.90;;;;;;5071898;28;20032;-71
2022/01/29 05:08:26;;;;;;;2.35;1.30;;;1.40;99.90;;;;;;5071452;28;20037;-70
2022/01/29 05:10:53;;;;;;;3.15;1.70;;;1.40;99.90;;;;;;5072368;28;20577;-71
2022/01/29 05:13:24;;;;;;;2.60;1.23;;;1.40;99.90;;;;;;5071417;28;20060;-71
2022/01/29 05:16:24;;;;;;;3.60;1.67;;;1.40;99.90;;;;;;5070931;28;20383;-71
2022/01/29 05:27:04;;;;;;;2.45;1.20;;;1.20;99.90;;;;;;5072632;28;20500;-71
2022/01/29 05:29:31;;;;;;;2.55;1.58;;;1.20;99.90;;;;;;5072035;28;20016;-71
2022/01/29 05:32:02;;;;;;;3.22;1.58;;;1.10;99.90;;;;;;5072449;28;20085;-71
2022/01/29 05:34:28;;;;;;;2.58;1.08;;;1.10;99.90;;;;;;5071616;28;20403;-70
2022/01/29 05:36:54;;;;;;;3.07;1.60;;;1.10;99.90;;;;;;5072587;28;20100;-71
2022/01/29 05:39:21;;;;;;;2.72;1.45;;;1.00;99.90;;;;;;5072111;28;20055;-70
2022/01/29 05:41:47;;;;;;;4.15;1.90;;;1.10;99.90;;;;;;5070844;28;20109;-70
2022/01/29 05:44:13;;;;;;;4.40;2.28;;;1.20;99.90;;;;;;5071777;28;20063;-70
2022/01/29 05:46:41;;;;;;;3.60;1.87;;;1.10;99.90;;;;;;5071970;28;20075;-71
2022/01/29 05:49:07;;;;;;;3.95;1.80;;;1.10;99.90;;;;;;5071608;28;20400;-71
2022/01/29 05:51:33;;;;;;;3.67;1.45;;;1.20;99.90;;;;;;5071966;28;20020;-71
2022/01/29 05:54:00;;;;;;;2.92;1.50;;;1.20;99.90;;;;;;5070267;28;20105;-71
2022/01/29 05:56:27;;;;;;;3.45;1.75;;;1.20;99.90;;;;;;5071848;28;20044;-72
2022/01/29 05:58:53;;;;;;;3.45;1.77;;;1.10;99.90;;;;;;5070593;28;20107;-70
2022/01/29 06:01:20;;;;;;;4.03;2.10;;;1.10;99.90;;;;;;5071495;28;20522;-71
2022/01/29 06:03:46;;;;;;;2.53;1.60;;;1.10;99.90;;;;;;5071907;28;20082;-74
2022/01/29 06:06:12;;;;;;;3.15;1.80;;;1.20;99.90;;;;;;5071290;28;20380;-70
2022/01/29 06:08:38;;;;;;;4.65;1.92;;;1.20;99.90;;;;;;5070287;28;20093;-71
2022/01/29 06:11:04;;;;;;;3.87;1.70;;;1.20;99.90;;;;;;5070511;28;20028;-70
2022/01/29 06:13:29;;;;;;;3.03;1.90;;;1.10;99.90;;;;;;5071487;28;20494;-71
2022/01/29 06:15:55;;;;;;;2.93;1.50;;;1.20;99.90;;;;;;5069381;28;20028;-70
2022/01/29 06:18:23;;;;;;;4.13;1.93;;;1.20;99.90;;;;;;5071730;28;20178;-71
2022/01/29 06:20:54;;;;;;;3.03;1.60;;;1.20;99.90;;;;;;5070790;28;20051;-72
2022/01/29 06:23:28;;;;;;;1.77;1.17;;;1.20;99.90;;;;;;5071353;28;20532;-70
2022/01/29 06:25:54;;;;;;;3.20;1.30;;;1.20;99.90;;;;;;5070692;28;20032;-71
2022/01/29 06:28:20;;;;;;;1.77;1.15;;;1.20;99.90;;;;;;5069938;28;20025;-70
2022/01/29 06:30:45;;;;;;;2.65;1.20;;;1.20;99.90;;;;;;5070969;28;20488;-71
2022/01/29 06:33:15;;;;;;;4.37;1.47;;;1.20;99.90;;;;;;5069488;28;20112;-70
2022/01/29 06:35:43;;;;;;;2.95;1.40;;;1.20;99.90;;;;;;5070405;28;20388;-71
2022/01/29 06:38:11;;;;;;;2.80;1.40;;;1.20;99.90;;;;;;5069374;28;20392;-71
2022/01/29 06:40:37;;;;;;;1.85;1.20;;;1.20;99.90;;;;;;5071152;28;20017;-70
2022/01/29 06:43:04;;;;;;;2.25;1.25;;;1.20;99.90;;;;;;5069633;28;20120;-70
2022/01/29 06:45:31;;;;;;;;;;;1.20;99.90;;;;;;5069635;28;20029;-69
2022/01/29 06:47:57;;;;;;;2.10;1.25;;;1.20;99.90;;;;;;5070968;28;19969;-70
2022/01/29 06:50:23;;;;;;;2.60;1.40;;;1.20;99.90;;;;;;5070357;28;20044;-71
2022/01/29 06:52:49;;;;;;;5.65;1.50;;;1.20;99.90;;;;;;5069648;28;20040;-72
2022/01/29 06:55:15;;;;;;;1.95;1.00;;;1.20;99.90;;;;;;5069120;28;20050;-71
2022/01/29 06:57:41;;;;;;;2.30;1.23;;;1.10;99.90;;;;;;5069487;28;20032;-71
2022/01/29 07:00:08;;;;;;;2.83;1.10;;;1.20;99.90;;;;;;5070507;28;20040;-71
2022/01/29 07:02:35;;;;;;;2.67;1.35;;;1.20;99.90;;;;;;5070801;28;20055;-72
2022/01/29 07:05:02;;;;;;;1.83;1.10;;;1.20;99.90;;;;;;5070106;28;20391;-71
2022/01/29 07:07:28;;;;;;;2.97;1.38;;;1.20;99.90;;;;;;5069144;28;20036;-72
2022/01/29 07:09:54;;;;;;;2.42;1.27;;;1.20;99.90;;;;;;5070018;28;20020;-71
2022/01/29 07:12:20;;;;;;;2.30;1.50;;;1.20;99.90;;;;;;5070477;28;20051;-72
2022/01/29 07:14:49;;;;;;;2.37;1.47;;;1.20;99.90;;;;;;5068830;28;20048;-71
2022/01/29 07:17:17;;;;;;;2.00;1.13;;;1.20;99.90;;;;;;5070650;28;20036;-71
2022/01/29 07:19:44;;;;;;;2.72;1.15;;;1.10;99.90;;;;;;5068678;28;20021;-72
2022/01/29 07:22:10;;;;;;;2.05;1.23;;;1.20;99.90;;;;;;5068757;28;20048;-71
2022/01/29 07:24:37;;;;;;;2.58;1.30;;;1.20;99.90;;;;;;5069034;28;20016;-72
2022/01/29 07:27:04;;;;;;;2.03;1.23;;;1.10;99.90;;;;;;5070823;28;20041;-73
2022/01/29 07:29:30;;;;;;;;;;;1.10;99.90;;;;;;5069157;28;20472;-72
2022/01/29 07:31:56;;;;;;;2.25;1.20;;;1.70;99.90;;;;;;5070700;28;20385;-72
2022/01/29 07:34:26;;;;;;;2.08;1.38;;;1.10;99.90;;;;;;5068923;28;20024;-72
2022/01/29 07:36:54;;;;;;;1.65;1.15;;;1.10;99.90;;;;;;5070619;28;20471;-71
2022/01/29 07:39:21;;;;;;;2.15;1.13;;;1.10;99.90;;;;;;5070414;28;20031;-73
2022/01/29 07:41:47;;;;;;;1.77;1.10;;;1.10;99.90;;;;;;5069218;28;20499;-72
2022/01/29 07:44:13;;;;;;;2.47;1.23;;;1.10;99.90;;;;;;5070166;28;20432;-71
2022/01/29 07:46:39;;;;;;;3.83;2.10;;;1.10;99.90;;;;;;5068955;28;20434;-71
2022/01/29 07:49:05;;;;;;;3.50;1.38;;;1.00;99.90;;;;;;5068631;28;20048;-73
2022/01/29 07:51:31;;;;;;;3.47;1.83;;;1.00;99.90;;;;;;5070174;28;20047;-70
2022/01/29 07:53:57;;;;;;;4.83;1.87;;;0.90;99.90;;;;;;5069820;28;20028;-72
2022/01/29 07:56:22;;;;;;;2.67;1.70;;;0.90;99.90;;;;;;5068899;28;20032;-71
2022/01/29 07:58:49;;;;;;;4.07;1.50;;;0.90;99.90;;;;;;5070337;28;20025;-71
2022/01/29 08:01:15;;;;;;;4.18;1.92;;;0.90;99.90;;;;;;5069646;28;20029;-71
2022/01/29 08:03:42;;;;;;;5.35;2.22;;;0.90;99.90;;;;;;5070504;28;20036;-70
2022/01/29 08:06:08;;;;;;;3.72;1.80;;;0.90;99.90;;;;;;5069279;28;20112;-71
2022/01/29 08:08:34;;;;;;;4.10;2.17;;;0.90;99.90;;;;;;5070142;28;20090;-71
2022/01/29 08:11:00;;;;;;;4.07;1.98;;;0.90;99.90;;;;;;5068359;28;20029;-71
2022/01/29 08:13:25;;;;;;;4.88;2.10;;;0.90;99.90;;;;;;5069988;28;20545;-72
2022/01/29 08:15:51;;;;;;;3.93;1.87;;;1.00;99.90;;;;;;5069739;28;20024;-72
2022/01/29 08:18:17;;;;;;;3.47;1.73;;;1.10;99.90;;;;;;5069448;28;20025;-72
2022/01/29 08:20:42;;;;;;;3.63;1.80;;;1.10;99.90;;;;;;5069922;28;20171;-72
2022/01/29 08:23:09;;;;;;;3.77;1.97;;;1.10;99.90;;;;;;5068258;28;20070;-71
2022/01/29 08:25:37;;;;;;;3.22;1.63;;;1.10;99.90;;;;;;5067888;28;20116;-73
2022/01/29 08:28:04;;;;;;;2.47;1.30;;;1.10;99.90;;;;;;5068676;28;20092;-71
2022/01/29 08:30:30;;;;;;;2.95;1.50;;;1.10;99.90;;;;;;5069829;28;20025;-71
2022/01/29 08:32:56;;;;;;;8.38;1.35;;;1.20;99.90;;;;;;5070389;28;20037;-72
2022/01/29 08:35:22;;;;;;;2.78;1.17;;;1.20;99.90;;;;;;5071752;28;20029;-72
2022/01/29 08:37:48;;;;;;;2.07;1.30;;;1.20;99.90;;;;;;5073271;28;20045;-72
2022/01/29 08:40:14;;;;;;;2.93;1.27;;;1.20;99.90;;;;;;5071719;28;20024;-72
2022/01/29 08:42:40;;;;;;;2.30;1.30;;;1.30;99.90;;;;;;5073832;28;20032;-71
2022/01/29 08:45:08;;;;;;;3.08;1.40;;;1.30;99.90;;;;;;5072659;28;20016;-73
2022/01/29 08:47:33;;;;;;;3.45;1.60;;;1.30;99.90;;;;;;5073631;28;20237;-70
2022/01/29 08:50:02;;;;;;;2.55;1.33;;;1.30;99.90;;;;;;5071521;28;20055;-71
2022/01/29 08:52:29;;;;;;;3.22;1.50;;;1.30;99.90;;;;;;5073469;28;20128;-73
2022/01/29 08:54:55;;;;;;;3.65;1.83;;;1.30;99.90;;;;;;5072680;28;20111;-73
2022/01/29 08:57:21;;;;;;;3.00;1.40;;;1.30;99.90;;;;;;5073694;28;20129;-72
2022/01/29 08:59:46;;;;;;;2.83;1.73;;;1.30;99.90;;;;;;5072691;28;20036;-72
2022/01/29 09:02:13;;;;;;;2.70;1.27;;;1.30;99.90;;;;;;5073661;28;20787;-70
2022/01/29 09:04:39;;;;;;;2.55;1.50;;;1.20;99.90;;;;;;5072387;28;20035;-72
2022/01/29 09:07:05;;;;;;;2.43;1.40;;;1.20;99.90;;;;;;5073341;28;20040;-70
2022/01/29 09:09:33;;;;;;;3.28;1.75;;;1.30;99.90;;;;;;5071538;28;20533;-71
2022/01/29 09:12:01;;;;;;;3.60;1.63;;;1.30;99.90;;;;;;5071896;28;20052;-70
2022/01/29 09:14:27;;;;;;;7.68;1.88;;;1.30;99.90;;;;;;5072272;28;20052;-71
2022/01/29 09:16:53;;;;;;;2.67;1.48;;;1.30;99.90;;;;;;5071298;28;20045;-71
2022/01/29 09:19:19;;;;;;;2.67;1.38;;;1.30;99.90;;;;;;5072368;28;20025;-71
2022/01/29 09:21:44;;;;;;;3.90;1.83;;;1.40;99.90;;;;;;5071596;28;20536;-71
2022/01/29 09:24:10;;;;;;;5.30;2.57;;;1.40;99.90;;;;;;5071793;28;20021;-71
2022/01/29 09:26:36;;;;;;;2.80;1.40;;;1.30;99.90;;;;;;5072804;28;20033;-71
2022/01/29 09:29:03;;;;;;;5.10;2.40;;;1.30;99.90;;;;;;5071993;28;20026;-72
2022/01/29 09:31:29;;;;;;;3.67;1.85;;;1.30;99.90;;;;;;5070911;28;20280;-74
2022/01/29 09:33:57;;;;;;;5.18;1.63;;;1.30;99.90;;;;;;5072361;28;20020;-72
2022/01/29 09:36:23;;;;;;;6.00;1.98;;;1.30;99.90;;;;;;5052393;28;20067;-73
2022/01/29 09:38:48;;;;;;;4.87;1.97;;;1.30;99.90;;;;;;5067782;28;20496;-74
2022/01/29 09:41:18;;;;;;;5.13;1.80;;;1.30;99.90;;;;;;5086329;28;20064;-71
2022/01/29 09:43:45;;;;;;;3.80;1.90;;;1.40;99.90;;;;;;5087655;28;20340;-72
2022/01/29 09:46:13;;;;;;;3.70;1.75;;;1.40;99.90;;;;;;5086537;28;20283;-71
2022/01/29 09:48:39;;;;;;;3.28;1.83;;;1.40;99.90;;;;;;5072193;28;20080;-71
2022/01/29 09:51:08;;;;;;;3.15;1.70;;;1.30;99.90;;;;;;5071877;28;20036;-71
2022/01/29 09:53:34;;;;;;;5.13;1.80;;;1.40;99.90;;;;;;5070499;28;20401;-71
2022/01/29 09:55:59;;;;;;;3.72;1.58;;;1.40;99.90;;;;;;5070055;28;20081;-71
2022/01/29 09:58:25;;;;;;;3.40;1.73;;;1.30;99.90;;;;;;5071633;28;20081;-72
2022/01/29 10:00:52;;;;;;;3.08;1.50;;;1.30;99.90;;;;;;5070067;28;20044;-71
2022/01/29 10:03:19;;;;;;;3.47;1.33;;;1.30;99.90;;;;;;5071811;28;20029;-71
2022/01/29 10:05:53;;;;;;;1.73;1.17;;;1.30;99.90;;;;;;5071100;28;20024;-71
2022/01/29 10:08:20;;;;;;;4.13;1.75;;;1.30;99.90;;;;;;5071738;28;20448;-71
2022/01/29 10:10:48;;;;;;;2.90;1.42;;;1.30;99.90;;;;;;5071339;28;20039;-73
2022/01/29 10:13:29;;;;;;;4.28;1.75;;;1.30;99.90;;;;;;5071629;28;20040;-74
2022/01/29 10:16:15;;;;;;;2.65;1.35;;;1.30;99.90;;;;;;5070470;28;20078;-72
2022/01/29 10:19:03;;;;;;;2.53;1.55;;;1.30;99.90;;;;;;5071283;28;20142;-71
2022/01/29 10:21:35;;;;;;;2.33;1.27;;;1.30;99.90;;;;;;5050962;28;20083;-72
2022/01/29 10:24:10;;;;;;;3.08;1.30;;;1.20;99.90;;;;;;5059019;28;20020;-71
2022/01/29 10:26:38;;;;;;;3.05;1.33;;;1.30;99.90;;;;;;5069149;28;20036;-71
2022/01/29 10:29:08;;;;;;;3.15;1.52;;;1.30;99.90;;;;;;5070818;28;20048;-72
2022/01/29 10:31:44;;;;;;;4.30;1.70;;;1.20;99.90;;;;;;5071197;28;20073;-72
2022/01/29 10:34:25;;;;;;;2.75;1.23;;;1.30;99.90;;;;;;5070606;28;20381;-70
2022/01/29 10:37:16;;;;;;;2.40;1.40;;;1.30;99.90;;;;;;5071187;28;20103;-74
2022/01/29 10:39:43;;;;;;;4.53;1.60;;;1.30;99.90;;;;;;5069418;28;20031;-71
2022/01/29 10:42:32;;;;;;;3.20;1.50;;;1.30;99.90;;;;;;5069624;28;20024;-72
2022/01/29 10:45:02;;;;;;;6.57;1.85;;;1.30;99.90;;;;;;5070335;28;20021;-71
2022/01/29 10:47:30;;;;;;;3.25;1.65;;;1.40;99.90;;;;;;5071372;28;20107;-70
2022/01/29 10:50:05;;;;;;;4.28;1.50;;;1.40;99.90;;;;;;5068733;28;20048;-71
2022/01/29 10:52:34;;;;;;;3.05;1.42;;;1.40;99.90;;;;;;5071501;28;20024;-72
2022/01/29 10:55:06;;;;;;;2.63;1.45;;;1.40;99.90;;;;;;5068868;28;20127;-72
2022/01/29 10:57:40;;;;;;;5.65;1.88;;;1.40;99.90;;;;;;5070116;28;20029;-71
2022/01/29 11:00:31;;;;;;;3.35;1.50;;;1.30;99.90;;;;;;5070928;28;20025;-74
2022/01/29 11:02:58;;;;;;;3.33;1.50;;;1.30;99.90;;;;;;5069804;28;20361;-73
2022/01/29 11:05:27;;;;;;;3.55;1.40;;;1.30;99.90;;;;;;5068499;28;20377;-72
2022/01/29 11:07:55;;;;;;;3.10;1.58;;;1.30;99.90;;;;;;5071232;28;20027;-73
2022/01/29 11:10:21;;;;;;;4.40;1.83;;;1.30;99.90;;;;;;5069526;28;20127;-72
2022/01/29 11:12:49;;;;;;;4.45;1.75;;;1.30;99.90;;;;;;5069670;28;20024;-73
2022/01/29 11:15:17;;;;;;;5.03;1.95;;;1.30;99.90;;;;;;5069078;28;20044;-73
2022/01/29 11:17:44;;;;;;;3.63;1.77;;;1.30;99.90;;;;;;5071181;28;20033;-73
2022/01/29 11:20:11;;;;;;;6.38;3.05;;;1.30;99.90;;;;;;5070575;28;20056;-71
2022/01/29 11:22:40;;;;;;;;;;;1.30;99.90;;;;;;5070343;28;20526;-72
2022/01/29 11:25:14;;;;;;;2.97;1.60;;;1.30;99.90;;;;;;5070395;28;19943;-71
2022/01/29 11:27:43;;;;;;;5.68;2.38;;;1.30;99.90;;;;;;5070317;28;20077;-72
2022/01/29 11:30:09;;;;;;;3.58;2.05;;;1.30;99.90;;;;;;5069084;28;20079;-71
2022/01/29 11:32:52;;;;;;;4.93;2.00;;;1.40;99.90;;;;;;5069392;28;20064;-71
2022/01/29 11:35:42;;;;;;;4.95;1.73;;;1.40;99.90;;;;;;5070141;28;20297;-71
2022/01/29 11:38:10;;;;;;;3.78;1.90;;;1.50;99.90;;;;;;5063639;28;20135;-73
2022/01/29 11:40:54;;;;;;;3.80;1.95;;;1.60;99.90;;;;;;5069467;28;20028;-71
2022/01/29 11:43:20;;;;;;;8.02;2.40;;;1.60;99.90;;;;;;5069413;28;20029;-73
2022/01/29 11:46:15;;;;;;;5.87;1.43;;;1.50;99.90;;;;;;5069123;28;20479;-71
2022/01/29 11:48:52;;;;;;;;;;;1.60;99.90;;;;;;5071041;28;20524;-71
2022/01/29 11:51:45;;;;;;;3.38;1.60;;;1.50;99.90;;;;;;5068714;28;19959;-72
2022/01/29 11:54:20;;;;;;;3.22;1.35;;;1.50;99.90;;;;;;5070073;28;20025;-71
2022/01/29 11:56:47;;;;;;;5.65;1.80;;;1.50;99.90;;;;;;5069821;28;20037;-71
2022/01/29 11:59:19;;;;;;;3.78;1.63;;;1.50;99.90;;;;;;5070201;28;20450;-71
2022/01/29 12:01:54;;;;;;;2.72;1.40;;;1.50;99.90;;;;;;5068805;28;20032;-72
2022/01/29 12:04:21;;;;;;;4.35;1.65;;;1.30;99.90;;;;;;5068654;28;20429;-71
2022/01/29 12:07:17;;;;;;;2.50;1.35;;;1.50;99.90;;;;;;5070901;28;20691;-71
2022/01/29 12:09:45;;;;;;;2.78;1.40;;;1.60;99.90;;;;;;5071455;28;20024;-71
2022/01/29 12:12:23;;;;;;;2.17;1.20;;;1.60;99.90;;;;;;5073931;28;20025;-70
2022/01/29 12:14:53;;;;;;;3.75;1.38;;;1.60;99.90;;;;;;5072432;28;20241;-72
2022/01/29 12:17:44;;;;;;;3.80;1.58;;;1.60;99.90;;;;;;5072753;28;20033;-72
2022/01/29 12:20:13;;;;;;;1.55;1.13;;;1.50;99.90;;;;;;5072366;28;20025;-71
2022/01/29 12:22:40;;;;;;;3.55;1.45;;;1.60;99.90;;;;;;5072582;28;20494;-71
2022/01/29 12:25:09;;;;;;;5.13;1.20;;;1.60;99.90;;;;;;5072607;28;20027;-72
2022/01/29 12:27:49;;;;;;;3.35;1.35;;;1.60;99.90;;;;;;5074775;28;20031;-71
2022/01/29 12:30:21;;;;;;;1.48;1.05;;;1.60;99.90;;;;;;5072898;28;20025;-71
2022/01/29 12:33:05;;;;;;;4.10;1.60;;;1.60;99.90;;;;;;5075045;28;20037;-70
2022/01/29 12:35:51;;;;;;;3.10;1.25;;;1.60;99.90;;;;;;5073002;28;20454;-73
2022/01/29 12:38:35;;;;;;;3.28;1.40;;;1.60;99.90;;;;;;5072987;28;20055;-70
2022/01/29 12:41:03;;;;;;;4.22;1.42;;;1.70;99.90;;;;;;5074718;28;20044;-72
2022/01/29 12:43:38;;;;;;;5.82;1.38;;;1.70;99.90;;;;;;5074624;28;20032;-71
2022/01/29 12:46:10;;;;;;;3.40;1.50;;;1.70;99.90;;;;;;5072691;28;20039;-73
2022/01/29 12:48:38;;;;;;;1.98;1.25;;;1.70;99.90;;;;;;5072572;28;20060;-71
2022/01/29 12:51:06;;;;;;;2.20;1.15;;;1.70;99.90;;;;;;5074576;28;20048;-70
2022/01/29 12:53:32;;;;;;;2.00;1.00;;;1.70;99.90;;;;;;5074248;28;20396;-72
2022/01/29 12:56:09;;;;;;;3.10;1.17;;;1.60;99.90;;;;;;5072940;28;20035;-71
2022/01/29 12:58:40;;;;;;;2.55;1.45;;;1.60;99.90;;;;;;5071694;28;20028;-70
2022/01/29 13:01:09;;;;;;;2.08;1.20;;;1.60;99.90;;;;;;5071694;28;20405;-71
2022/01/29 13:03:37;;;;;;;2.10;1.08;;;1.60;99.90;;;;;;5072862;28;20480;-70
2022/01/29 13:06:08;;;;;;;3.35;1.40;;;1.60;99.90;;;;;;5072753;28;20764;-71
2022/01/29 13:08:35;;;;;;;3.50;1.40;;;1.50;99.90;;;;;;5071581;28;20123;-71
2022/01/29 13:11:01;;;;;;;2.28;1.10;;;1.50;99.90;;;;;;5072647;28;20029;-71
2022/01/29 13:13:32;;;;;;;1.92;0.98;;;1.40;99.90;;;;;;5071511;28;20047;-72
2022/01/29 13:15:59;;;;;;;5.50;1.75;;;1.40;99.90;;;;;;5072179;28;20031;-72